Time;durP1;ratioP1;P1;durP2;ratioP2;P2;SDS_P1;SDS_P2;PMS_P1;PMS_P2;Temp;Humidity;BMP_temperature;BMP_pressure;BME280_temperature;BME280_humidity;BME280_pressure;Samples;Min_cycle;Max_cycle;Signal;HPM_P1;HPM_P2
2021/06/25 00:02:16;;;;;;;;;16.00;15.50;;;;;22.46;39.05;101654.69;5059225;28;45444;-59
2021/06/25 00:04:41;;;;;;;;;17.50;15.25;;;;;22.47;39.11;101664.31;5059310;28;45501;-56
2021/06/25 00:07:07;;;;;;;;;15.75;15.00;;;;;22.47;39.17;101659.88;5059393;28;45532;-57
2021/06/25 00:09:32;;;;;;;;;19.75;15.75;;;;;22.46;39.09;101652.88;5058970;28;45969;-59
2021/06/25 00:11:58;;;;;;;;;17.50;17.50;;;;;22.46;38.76;101655.53;5057670;28;45534;-58
2021/06/25 00:14:23;;;;;;;;;18.00;18.00;;;;;22.46;38.89;101655.53;5059467;28;45418;-56
2021/06/25 00:16:50;;;;;;;;;19.50;17.50;;;;;22.46;38.83;101657.31;5059360;28;45280;-57
2021/06/25 00:19:16;;;;;;;;;16.00;13.75;;;;;22.45;38.78;101655.59;5058943;28;46156;-54
2021/06/25 00:21:42;;;;;;;;;21.50;17.50;;;;;22.45;39.16;101637.97;5058847;28;45818;-56
2021/06/25 00:24:08;;;;;;;;;16.50;13.75;;;;;22.42;38.91;101653.09;5057639;28;45401;-55
2021/06/25 00:26:33;;;;;;;;;15.75;14.50;;;;;22.44;38.89;101641.53;5058964;28;45583;-59
2021/06/25 00:28:59;;;;;;;;;17.50;16.75;;;;;22.43;39.19;101642.50;5058800;28;45864;-56
2021/06/25 00:31:24;;;;;;;;;15.25;14.75;;;;;22.44;39.29;101643.34;5059117;28;45366;-56
2021/06/25 00:33:49;;;;;;;;;17.25;15.75;;;;;22.42;39.07;101648.69;5058955;28;45399;-55
2021/06/25 00:36:15;;;;;;;;;17.00;16.00;;;;;22.44;39.30;101636.25;5058933;28;45307;-54
2021/06/25 00:38:40;;;;;;;;;18.00;17.00;;;;;22.44;39.08;101627.47;5058523;28;45324;-54
2021/06/25 00:41:05;;;;;;;;;15.50;15.50;;;;;22.38;39.28;101625.97;5058771;28;45881;-56
2021/06/25 00:43:31;;;;;;;;;19.00;17.25;;;;;22.44;39.29;101638.03;5058787;28;45606;-55
2021/06/25 00:45:56;;;;;;;;;19.25;15.50;;;;;22.43;39.08;101631.94;5058888;28;45539;-54
2021/06/25 00:48:21;;;;;;;;;16.00;12.50;;;;;22.43;39.47;101626.63;5058838;28;46337;-55
2021/06/25 00:50:47;;;;;;;;;13.50;13.50;;;;;22.42;39.30;101622.28;5058466;28;45329;-55
2021/06/25 00:53:12;;;;;;;;;17.25;16.50;;;;;22.43;39.49;101624.00;5058586;28;45385;-56
2021/06/25 00:55:43;;;;;;;;;19.00;16.50;;;;;22.42;39.68;101627.56;5058876;28;45355;-53
2021/06/25 00:58:15;;;;;;;;;21.00;18.00;;;;;22.40;39.06;101616.19;5058425;28;45393;-54
2021/06/25 01:00:41;;;;;;;;;17.00;15.25;;;;;22.41;39.54;101615.28;5058292;28;45847;-54
2021/06/25 01:03:06;;;;;;;;;17.00;16.50;;;;;22.38;39.52;101605.69;5057223;28;45360;-55
2021/06/25 01:05:32;;;;;;;;;17.00;17.00;;;;;22.42;39.62;101610.84;5058502;28;45322;-55
2021/06/25 01:07:58;;;;;;;;;19.25;18.25;;;;;22.42;39.51;101608.22;5058261;28;46234;-55
2021/06/25 01:10:24;;;;;;;;;15.75;15.75;;;;;22.41;39.80;101603.84;5058558;28;45311;-57
2021/06/25 01:12:50;;;;;;;;;20.25;18.00;;;;;22.41;39.60;101606.50;5058486;28;45319;-57
2021/06/25 01:15:16;;;;;;;;;17.75;17.75;;;;;22.41;39.56;101607.38;5058621;28;45433;-57
2021/06/25 01:17:43;;;;;;;;;21.25;18.25;;;;;22.41;39.68;101602.09;5058239;28;45993;-56
2021/06/25 01:20:09;;;;;;;;;15.25;13.75;;;;;22.41;39.62;101602.09;5058058;28;45382;-56
2021/06/25 01:22:38;;;;;;;;;19.00;17.00;;;;;22.38;39.48;101595.13;5058230;28;45242;-56
2021/06/25 01:25:20;;;;;;;;;16.00;14.50;;;;;22.40;39.52;101597.69;5058215;28;45326;-56
2021/06/25 01:27:48;;;;;;;;;16.75;15.25;;;;;22.41;39.63;101595.94;5057948;28;45265;-57
2021/06/25 01:30:21;;;;;;;;;16.75;16.75;;;;;22.41;39.49;101590.66;5057998;28;45858;-54
2021/06/25 01:32:47;;;;;;;;;15.50;15.50;;;;;22.39;39.68;101596.84;5057932;28;45371;-55
2021/06/25 01:35:13;;;;;;;;;19.00;17.00;;;;;22.40;39.88;101600.34;5058120;28;45402;-54
2021/06/25 01:37:39;;;;;;;;;18.75;16.25;;;;;22.38;39.59;101587.19;5057762;28;45317;-55
2021/06/25 01:40:10;;;;;;;;;17.25;15.50;;;;;22.39;39.77;101596.84;5057669;28;45334;-57
2021/06/25 01:42:39;;;;;;;;;20.25;18.25;;;;;22.39;39.80;101593.34;5057901;28;45290;-60
2021/06/25 01:45:09;;;;;;;;;17.75;17.75;;;;;22.39;39.72;101590.72;5057839;28;45437;-57
2021/06/25 01:47:37;;;;;;;;;19.75;18.00;;;;;22.38;40.09;101591.63;5057508;28;45414;-57
2021/06/25 01:50:07;;;;;;;;;21.75;17.25;;;;;22.38;39.67;101589.84;5057652;28;45814;-58
2021/06/25 01:52:33;;;;;;;;;15.75;15.75;;;;;22.38;40.10;101591.63;5057504;28;45431;-56
2021/06/25 01:54:58;;;;;;;;;20.50;18.50;;;;;22.37;39.82;101588.16;5058169;28;45284;-56
2021/06/25 01:57:24;;;;;;;;;19.00;18.25;;;;;22.38;39.92;101589.00;5057459;28;45674;-56
2021/06/25 01:59:49;;;;;;;;;18.00;16.75;;;;;22.36;39.57;101580.28;5057013;28;55573;-58
2021/06/25 02:02:15;;;;;;;;;16.00;16.00;;;;;22.37;40.21;101579.38;5056848;28;45579;-55
2021/06/25 02:04:40;;;;;;;;;18.50;16.50;;;;;22.35;39.99;101573.31;5057730;28;45293;-57
2021/06/25 02:07:05;;;;;;;;;20.00;17.50;;;;;22.35;40.09;101560.97;5057307;28;45399;-57
2021/06/25 02:09:31;;;;;;;;;18.25;16.75;;;;;22.34;39.86;101567.19;5057203;28;45458;-54
2021/06/25 02:11:56;;;;;;;;;20.00;17.75;;;;;22.33;39.93;101565.47;5057706;28;45440;-55
2021/06/25 02:14:22;;;;;;;;;20.00;16.75;;;;;22.34;40.10;101561.03;5057402;28;45605;-56
2021/06/25 02:16:48;;;;;;;;;20.50;19.50;;;;;22.34;40.18;101561.03;5056867;28;45484;-58
2021/06/25 02:19:13;;;;;;;;;15.75;15.75;;;;;22.32;40.10;101558.47;5057094;28;45259;-56
2021/06/25 02:21:39;;;;;;;;;20.50;18.50;;;;;22.33;40.19;101556.66;5057315;28;45316;-56
2021/06/25 02:24:05;;;;;;;;;17.00;14.75;;;;;22.33;40.29;101551.38;5056092;28;45269;-56
2021/06/25 02:26:30;;;;;;;;;20.25;18.25;;;;;22.29;40.01;101548.06;5055867;28;46859;-56
2021/06/25 02:28:55;;;;;;;;;21.25;21.00;;;;;22.32;40.21;101549.72;5057098;28;45348;-56
2021/06/25 02:31:21;;;;;;;;;20.75;17.50;;;;;22.32;40.25;101553.19;5057268;28;45389;-58
2021/06/25 02:33:46;;;;;;;;;15.75;15.00;;;;;22.32;40.20;101541.78;5057310;28;45326;-57
2021/06/25 02:36:11;;;;;;;;;20.67;19.00;;;;;22.30;40.26;101541.00;5056435;28;55460;-59
2021/06/25 02:38:37;;;;;;;;;16.25;14.50;;;;;22.31;40.30;101540.06;5056740;28;45457;-56
2021/06/25 02:41:02;;;;;;;;;22.25;21.75;;;;;22.31;40.27;101545.34;5057130;28;45417;-56
2021/06/25 02:43:27;;;;;;;;;19.75;19.75;;;;;22.31;40.30;101545.34;5057286;28;45490;-52
2021/06/25 02:45:53;;;;;;;;;18.25;16.25;;;;;22.30;40.20;101543.66;5056629;28;46177;-55
2021/06/25 02:48:18;;;;;;;;;20.25;17.25;;;;;22.30;40.08;101538.38;5056671;28;46140;-57
2021/06/25 02:50:43;;;;;;;;;22.50;18.00;;;;;22.30;40.27;101530.44;5056732;28;45471;-58
2021/06/25 02:53:09;;;;;;;;;16.50;16.00;;;;;22.29;40.13;101536.66;5056974;28;45437;-56
2021/06/25 02:55:35;;;;;;;;;18.75;18.00;;;;;22.29;40.12;101537.50;5056504;28;45308;-56
2021/06/25 02:58:00;;;;;;;;;19.00;15.75;;;;;22.29;40.39;101540.13;5056872;28;45255;-55
2021/06/25 03:00:25;;;;;;;;;20.50;19.25;;;;;22.29;40.25;101536.66;5056561;28;45217;-55
2021/06/25 03:02:51;;;;;;;;;16.50;16.50;;;;;22.28;40.25;101529.66;5056753;28;45569;-56
2021/06/25 03:05:17;;;;;;;;;21.25;19.50;;;;;22.29;40.03;101534.03;5056368;28;45472;-56
2021/06/25 03:07:43;;;;;;;;;18.00;17.25;;;;;22.28;40.54;101535.78;5055230;28;45924;-59
2021/06/25 03:10:09;;;;;;;;;20.75;17.75;;;;;22.28;40.22;101529.66;5056547;28;45337;-54
2021/06/25 03:12:35;;;;;;;;;23.25;21.00;;;;;22.27;40.47;101530.59;5055462;28;45304;-56
2021/06/25 03:15:01;;;;;;;;;22.25;21.25;;;;;22.26;40.23;101534.16;5056429;28;46244;-55
2021/06/25 03:17:26;;;;;;;;;20.75;18.50;;;;;22.26;40.29;101535.03;5056277;28;45402;-56
2021/06/25 03:19:52;;;;;;;;;20.50;18.75;;;;;22.24;40.43;101529.81;5056365;28;45248;-56
2021/06/25 03:22:17;;;;;;;;;18.75;14.50;;;;;22.25;40.43;101533.34;5056117;28;45493;-54
2021/06/25 03:24:43;;;;;;;;;19.50;19.50;;;;;22.23;40.38;101528.09;5055992;28;46314;-55
2021/06/25 03:27:09;;;;;;;;;16.75;15.50;;;;;22.25;40.54;101525.41;5056149;28;45400;-54
2021/06/25 03:29:35;;;;;;;;;19.00;17.25;;;;;22.24;40.83;101524.53;5056370;28;45309;-56
2021/06/25 03:32:00;;;;;;;;;21.75;20.00;;;;;22.23;40.47;101528.09;5072367;28;45317;-54
2021/06/25 03:34:26;;;;;;;;;19.50;19.50;;;;;22.23;40.74;101533.38;5055990;28;46439;-55
2021/06/25 03:36:51;;;;;;;;;21.50;18.25;;;;;22.24;40.66;101534.25;5056114;28;45272;-55
2021/06/25 03:39:17;;;;;;;;;19.00;16.25;;;;;22.22;40.38;101530.84;5056044;28;45500;-55
2021/06/25 03:41:43;;;;;;;;;20.75;17.50;;;;;22.23;40.86;101533.38;5056231;28;45320;-56
2021/06/25 03:44:08;;;;;;;;;21.75;20.50;;;;;22.21;40.82;101529.13;5054632;28;47974;-55
2021/06/25 03:46:33;;;;;;;;;18.50;16.25;;;;;22.21;40.61;101535.25;5056202;28;45277;-56
2021/06/25 03:48:59;;;;;;;;;18.50;17.50;;;;;22.20;40.70;101537.97;5055990;28;45354;-57
2021/06/25 03:51:24;;;;;;;;;15.75;15.75;;;;;22.20;40.69;101533.56;5054941;28;45561;-56
2021/06/25 03:53:50;;;;;;;;;19.00;16.50;;;;;22.20;40.76;101541.50;5055734;28;45340;-59
2021/06/25 03:56:15;;;;;;;;;18.50;16.00;;;;;22.18;40.62;101532.78;5055857;28;45350;-59
2021/06/25 03:58:47;;;;;;;;;18.00;17.25;;;;;22.18;40.45;101530.16;5055908;28;45413;-58
2021/06/25 04:01:13;;;;;;;;;14.50;14.50;;;;;22.17;40.68;101525.78;5054867;28;45549;-59
2021/06/25 04:03:39;;;;;;;;;18.25;18.25;;;;;22.18;40.44;101521.34;5055695;28;45434;-56
2021/06/25 04:06:05;;;;;;;;;18.00;16.75;;;;;22.16;41.07;101525.88;5055971;28;45492;-57
2021/06/25 04:08:32;;;;;;;;;22.25;18.25;;;;;22.16;41.03;101525.88;5055993;28;45417;-56
2021/06/25 04:10:58;;;;;;;;;19.75;17.50;;;;;22.14;40.94;101525.09;5055850;28;45332;-56
2021/06/25 04:13:28;;;;;;;;;21.50;19.50;;;;;22.13;40.92;101526.03;5055308;28;45331;-57
2021/06/25 04:15:55;;;;;;;;;20.75;18.75;;;;;22.13;41.00;101520.75;5055539;28;45462;-58
2021/06/25 04:18:21;;;;;;;;;19.50;18.50;;;;;22.09;41.00;101520.91;5055722;28;45379;-58
2021/06/25 04:20:47;;;;;;;;;20.25;15.75;;;;;22.08;40.97;101515.72;5055986;28;45791;-58
2021/06/25 04:23:13;;;;;;;;;18.25;16.50;;;;;22.06;41.04;101517.56;5055330;28;46387;-59
2021/06/25 04:25:39;;;;;;;;;20.50;17.00;;;;;22.04;40.88;101514.16;5057076;28;45608;-57
2021/06/25 04:28:04;;;;;;;;;18.00;16.25;;;;;22.02;41.29;101516.88;5059649;28;45277;-58
2021/06/25 04:30:30;;;;;;;;;19.25;16.50;;;;;21.99;41.28;101514.38;5059184;28;45525;-55
2021/06/25 04:33:00;;;;;;;;;24.00;22.25;;;;;21.98;41.15;101527.69;5058693;28;46649;-56
2021/06/25 04:35:30;;;;;;;;;19.50;18.50;;;;;21.94;41.18;101521.66;5058718;28;45348;-59
2021/06/25 04:37:56;;;;;;;;;20.25;20.00;;;;;21.97;41.47;101521.53;5058698;28;45553;-57
2021/06/25 04:40:21;;;;;;;;;23.75;20.25;;;;;21.97;41.14;101526.81;5057474;28;45450;-58
2021/06/25 04:42:47;;;;;;;;;17.75;17.75;;;;;21.97;40.98;101525.97;5058535;28;46518;-57
2021/06/25 04:45:14;;;;;;;;;21.50;17.00;;;;;21.95;41.15;101522.53;5058624;28;45206;-55
2021/06/25 04:47:41;;;;;;;;;20.00;20.00;;;;;21.97;40.84;101525.97;5058823;28;45342;-56
2021/06/25 04:50:07;;;;;;;;;21.00;20.00;;;;;21.95;40.90;101512.00;5059124;28;45328;-57
2021/06/25 04:52:32;;;;;;;;;20.25;18.25;;;;;21.98;41.14;101522.41;5057091;28;46654;-58
2021/06/25 04:54:57;;;;;;;;;16.25;15.75;;;;;21.99;40.89;101514.38;5058487;28;45367;-56
2021/06/25 04:57:23;;;;;;;;;17.50;17.50;;;;;21.99;41.39;101516.19;5058508;28;45782;-57
2021/06/25 04:59:48;;;;;;;;;21.75;19.00;;;;;22.02;40.83;101524.81;5058873;28;45224;-60
2021/06/25 05:02:13;;;;;;;;;25.75;22.25;;;;;22.02;41.31;101518.66;5058333;28;45999;-59
2021/06/25 05:04:39;;;;;;;;;21.00;19.00;;;;;22.01;40.94;101512.53;5058330;28;47660;-56
2021/06/25 05:07:04;;;;;;;;;19.25;17.25;;;;;22.02;41.05;101513.38;5058643;28;45388;-57
2021/06/25 05:09:29;;;;;;;;;16.25;16.25;;;;;22.04;41.05;101520.31;5058431;28;45548;-57
2021/06/25 05:11:55;;;;;;;;;24.75;19.75;;;;;22.04;41.17;101522.06;5056626;28;45337;-56
2021/06/25 05:14:20;;;;;;;;;20.00;18.00;;;;;22.04;40.99;101522.06;5057913;28;49436;-55
2021/06/25 05:16:45;;;;;;;;;15.75;14.25;;;;;22.02;41.05;101526.56;5058421;28;45392;-55
2021/06/25 05:19:11;;;;;;;;;17.00;17.00;;;;;22.02;41.07;101524.81;5058075;28;48360;-58
2021/06/25 05:21:37;;;;;;;;;19.00;17.75;;;;;22.04;41.00;101530.88;5058323;28;45320;-59
2021/06/25 05:24:03;;;;;;;;;17.50;17.00;;;;;22.04;40.97;101530.00;5058017;28;45842;-59
2021/06/25 05:26:29;;;;;;;;;22.25;20.00;;;;;22.04;41.33;101527.34;5057999;28;45389;-56
2021/06/25 05:28:54;;;;;;;;;17.50;17.50;;;;;22.04;41.08;101528.22;5058209;28;45442;-56
2021/06/25 05:31:19;;;;;;;;;22.25;19.25;;;;;22.03;41.57;101525.63;5058074;28;46179;-55
2021/06/25 05:33:45;;;;;;;;;22.00;18.00;;;;;22.04;41.36;101527.34;5058011;28;45398;-55
2021/06/25 05:36:10;;;;;;;;;17.50;17.25;;;;;22.03;41.40;101526.50;5057062;28;45421;-55
2021/06/25 05:38:36;;;;;;;;;19.25;18.00;;;;;22.02;41.20;101527.44;5058376;28;45594;-55
2021/06/25 05:41:01;;;;;;;;;17.25;17.25;;;;;22.03;41.09;101531.78;5057823;28;46025;-57
2021/06/25 05:43:26;;;;;;;;;13.50;13.50;;;;;22.03;41.33;101530.91;5057789;28;45384;-54
2021/06/25 05:45:52;;;;;;;;;23.25;18.75;;;;;22.03;41.22;101521.22;5057972;28;45846;-54
2021/06/25 05:48:17;;;;;;;;;21.00;19.50;;;;;22.03;41.36;101528.28;5057927;28;45621;-56
2021/06/25 05:50:42;;;;;;;;;20.25;18.25;;;;;22.03;41.23;101526.50;5057675;28;46128;-55
2021/06/25 05:53:09;;;;;;;;;24.00;19.75;;;;;22.05;41.13;101531.69;5058048;28;45260;-56
2021/06/25 05:55:35;;;;;;;;;22.00;20.00;;;;;22.05;41.13;101526.41;5057926;28;45271;-57
2021/06/25 05:58:01;;;;;;;;;22.00;20.00;;;;;22.07;40.77;101532.47;5057984;28;45217;-56
2021/06/25 06:00:26;;;;;;;;;19.50;17.00;;;;;22.07;41.30;101535.97;5057466;28;46079;-58
2021/06/25 06:02:52;;;;;;;;;21.00;19.00;;;;;22.07;40.99;101532.47;5057634;28;45371;-54
2021/06/25 06:05:17;;;;;;;;;21.00;17.00;;;;;22.08;41.04;101534.19;5057299;28;45294;-56
2021/06/25 06:07:43;;;;;;;;;21.00;19.25;;;;;22.08;41.43;101537.66;5057685;28;45739;-55
2021/06/25 06:10:11;;;;;;;;;19.25;16.50;;;;;22.06;40.96;101542.16;5056466;28;47540;-57
2021/06/25 06:12:37;;;;;;;;;21.50;20.00;;;;;22.09;41.24;101535.91;5057512;28;45910;-56
2021/06/25 06:15:03;;;;;;;;;17.25;16.75;;;;;22.07;41.24;101537.75;5057531;28;45374;-57
2021/06/25 06:17:28;;;;;;;;;20.25;17.00;;;;;22.06;40.88;101536.88;5057556;28;45245;-59
2021/06/25 06:19:55;;;;;;;;;20.25;18.50;;;;;22.04;41.12;101532.63;5057026;28;45266;-54
2021/06/25 06:33:26;;;;;;;;;17.50;17.25;;;;;22.02;41.34;101518.66;5056774;28;45232;-59
2021/06/25 06:35:52;;;;;;;;;19.00;18.50;;;;;21.98;41.10;101522.41;5057059;28;45427;-59
2021/06/25 06:38:17;;;;;;;;;22.00;20.00;;;;;21.94;40.85;101524.31;5057188;28;45390;-59
2021/06/25 06:40:43;;;;;;;;;22.00;21.00;;;;;21.89;41.17;101519.28;5057339;28;47012;-58
2021/06/25 06:43:08;;;;;;;;;23.25;19.50;;;;;21.83;40.76;101511.66;5056873;28;45322;-58
2021/06/25 06:45:34;;;;;;;;;22.50;19.50;;;;;21.78;40.72;101518.94;5056895;28;45391;-56
2021/06/25 06:48:00;;;;;;;;;19.25;19.25;;;;;21.71;40.68;101509.66;5056805;28;45201;-59
2021/06/25 06:50:25;;;;;;;;;20.00;18.75;;;;;21.67;41.03;101513.34;5056542;28;46934;-60
2021/06/25 06:52:51;;;;;;;;;20.50;19.00;;;;;21.61;41.15;101519.78;5056798;28;45217;-59
2021/06/25 06:55:21;;;;;;;;;21.25;17.75;;;;;21.58;41.24;101518.13;5056772;28;45421;-66
2021/06/25 06:57:47;;;;;;;;;23.25;20.00;;;;;21.54;40.93;101524.50;5056919;28;45475;-65
2021/06/25 07:00:13;;;;;;;;;16.75;15.75;;;;;21.49;41.19;101515.94;5056427;28;47258;-59
2021/06/25 07:02:40;;;;;;;;;20.50;19.50;;;;;21.50;40.98;101525.56;5053435;28;45376;-64
2021/06/25 07:05:07;;;;;;;;;24.50;20.75;;;;;21.49;41.42;101518.59;5056484;28;45454;-62
2021/06/25 07:07:33;;;;;;;;;18.00;18.00;;;;;21.50;41.38;101516.81;5056456;28;45535;-59
2021/06/25 07:09:59;;;;;;;;;19.50;17.75;;;;;21.52;41.52;101531.63;5072241;27;45911;-64
2021/06/25 07:12:25;;;;;;;;;18.25;17.00;;;;;21.55;41.56;101526.19;5076389;27;45809;-61
2021/06/25 07:14:51;;;;;;;;;16.00;15.75;;;;;21.59;41.18;101530.44;5072481;28;45507;-60
2021/06/25 07:17:16;;;;;;;;;19.50;18.25;;;;;21.59;41.35;101524.31;5076474;28;45584;-63
2021/06/25 07:19:42;;;;;;;;;20.50;17.50;;;;;21.58;41.38;101517.28;5076169;28;45480;-69
2021/06/25 07:22:07;;;;;;;;;19.25;17.00;;;;;21.58;41.26;101518.13;5075963;28;45684;-67
2021/06/25 07:24:32;;;;;;;;;20.00;17.75;;;;;21.56;41.63;101517.34;5075949;28;45418;-61
2021/06/25 07:26:58;;;;;;;;;24.00;22.00;;;;;21.58;41.53;101510.22;5075688;27;45330;-65
2021/06/25 07:29:24;;;;;;;;;18.75;17.25;;;;;21.61;41.68;101520.66;5075710;28;45296;-63
2021/06/25 07:31:49;;;;;;;;;19.50;19.25;;;;;21.63;41.39;101523.22;5075361;28;45340;-64
2021/06/25 07:34:15;;;;;;;;;19.50;19.50;;;;;21.66;41.32;101501.13;5093453;27;45351;-64
2021/06/25 07:36:40;;;;;;;;;21.75;19.25;;;;;21.65;41.50;101496.78;5096721;27;45314;-63
2021/06/25 07:39:09;;;;;;;;;23.00;18.50;;;;;21.66;41.56;101504.59;5095407;27;45996;-64
2021/06/25 07:41:35;;;;;;;;;18.75;17.25;;;;;21.68;41.69;101496.59;5075647;27;45385;-63
2021/06/25 07:44:01;;;;;;;;;17.25;16.25;;;;;21.71;41.39;101494.69;5075145;28;45359;-58
2021/06/25 07:46:26;;;;;;;;;19.75;17.75;;;;;21.77;41.79;101504.06;5075056;28;45408;-63
2021/06/25 07:48:51;;;;;;;;;19.00;17.75;;;;;21.82;41.63;101502.03;5074704;28;46025;-61
2021/06/25 07:51:17;;;;;;;;;18.75;17.50;;;;;21.87;41.80;101496.53;5076182;27;45290;-60
2021/06/25 07:53:42;;;;;;;;;15.75;15.75;;;;;21.90;41.57;101489.31;5076486;27;45381;-63
2021/06/25 07:56:08;;;;;;;;;17.75;16.50;;;;;21.99;41.38;101487.16;5076331;27;45492;-68
2021/06/25 07:58:33;;;;;;;;;23.75;20.25;;;;;21.97;41.57;101478.47;5076212;27;46015;-69
2021/06/25 08:00:59;;;;;;;;;17.50;15.75;;;;;22.11;41.86;101489.13;5079657;27;45299;-68
2021/06/25 08:03:24;;;;;;;;;19.00;16.50;;;;;22.17;41.77;101491.47;5079725;27;45748;-67
2021/06/25 08:05:49;;;;;;;;;25.25;18.00;;;;;22.20;41.50;101486.03;5079841;27;45429;-68
2021/06/25 08:08:15;;;;;;;;;19.00;17.75;;;;;22.23;41.49;101472.66;5079743;27;46430;-71
2021/06/25 08:10:40;;;;;;;;;19.00;15.75;;;;;22.30;41.71;101488.19;5079469;27;45334;-70
2021/06/25 08:13:05;;;;;;;;;18.75;17.75;;;;;22.29;41.63;101473.28;5079624;27;45430;-65
2021/06/25 08:15:31;;;;;;;;;14.75;13.75;;;;;22.37;41.33;101476.38;5079819;27;45541;-65
2021/06/25 08:17:57;;;;;;;;;17.75;17.00;;;;;22.41;41.72;101482.38;5079471;27;46411;-71
2021/06/25 08:20:22;;;;;;;;;16.50;16.00;;;;;22.44;41.48;101487.50;5079386;27;45260;-72
2021/06/25 08:22:48;;;;;;;;;17.75;16.50;;;;;22.46;41.60;101477.69;5079969;27;45487;-72
2021/06/25 08:25:13;;;;;;;;;21.00;18.25;;;;;22.49;41.40;101478.38;5079467;27;45354;-75
2021/06/25 08:27:39;;;;;;;;;20.00;16.75;;;;;22.50;41.52;101476.59;5079099;27;46322;-65
2021/06/25 08:30:06;;;;;;;;;17.25;15.25;;;;;22.54;41.60;101478.13;5079303;27;45318;-65
2021/06/25 08:32:31;;;;;;;;;16.50;14.25;;;;;22.57;41.25;101471.81;5079231;27;45295;-63
2021/06/25 08:34:57;;;;;;;;;15.50;15.50;;;;;22.58;41.48;101469.13;5079427;27;45317;-70
2021/06/25 08:37:22;;;;;;;;;14.75;14.75;;;;;22.59;41.54;101470.84;5079505;27;45919;-70
2021/06/25 08:39:47;;;;;;;;;19.25;18.75;;;;;22.61;41.36;101462.81;5079102;27;45359;-66
2021/06/25 08:42:14;;;;;;;;;17.75;17.75;;;;;22.64;41.24;101463.50;5079376;27;45751;-63
2021/06/25 08:44:40;;;;;;;;;19.00;15.25;;;;;22.66;41.46;101455.47;5079292;28;45810;-65
2021/06/25 08:47:07;;;;;;;;;20.25;15.25;;;;;22.66;41.24;101450.19;5077577;27;45452;-71
2021/06/25 08:49:41;;;;;;;;;18.25;16.00;;;;;22.69;41.52;101455.31;5061030;28;45509;-66
2021/06/25 08:52:06;;;;;;;;;19.00;15.50;;;;;22.70;41.20;101447.31;5079019;27;45452;-60
2021/06/25 08:54:35;;;;;;;;;17.50;16.25;;;;;22.72;41.20;101449.88;5079197;27;45243;-68
2021/06/25 08:57:03;;;;;;;;;16.00;15.00;;;;;22.72;41.44;101449.88;5077395;28;45488;-65
2021/06/25 08:59:29;;;;;;;;;17.75;16.25;;;;;22.74;41.17;101444.47;5078743;27;45664;-64
2021/06/25 09:01:55;;;;;;;;;18.00;16.00;;;;;22.77;41.42;101449.59;5079032;28;45235;-69
2021/06/25 09:04:37;;;;;;;;;19.25;18.25;;;;;22.78;41.44;101444.22;5077950;28;45332;-67
2021/06/25 09:07:04;;;;;;;;;18.50;15.25;;;;;22.80;41.43;101436.22;5077457;28;46245;-67
2021/06/25 09:09:42;;;;;;;;;21.00;18.25;;;;;22.84;41.20;101448.31;5078519;27;45268;-62
2021/06/25 09:12:13;;;;;;;;;20.00;17.25;;;;;22.87;41.21;101442.03;5078687;27;45327;-68
2021/06/25 09:15:18;;;;;;;;;18.00;16.75;;;;;22.88;41.13;101435.78;5078828;27;45275;-61
2021/06/25 09:17:55;;;;;;;;;15.00;13.75;;;;;22.87;41.09;101431.47;4996108;28;47157;-69
2021/06/25 09:20:40;;;;;;;;;19.00;15.25;;;;;22.88;40.93;101430.50;4980008;28;45788;-65
2021/06/25 09:23:09;;;;;;;;;14.75;14.75;;;;;22.90;41.13;101433.91;5051678;27;45315;-68
2021/06/25 09:25:55;;;;;;;;;22.75;18.00;;;;;22.90;40.95;101418.91;5078539;27;45434;-64
2021/06/25 09:28:34;;;;;;;;;15.00;14.50;;;;;22.91;41.27;101417.13;5078585;28;45953;-62
2021/06/25 09:30:59;;;;;;;;;14.75;14.00;;;;;22.92;41.16;101429.41;5078299;27;45247;-64
2021/06/25 09:33:24;;;;;;;;;16.50;16.00;;;;;22.90;41.26;101425.97;5076948;28;45340;-62
2021/06/25 09:35:55;;;;;;;;;19.00;13.75;;;;;22.93;41.16;101424.00;5078867;27;45192;-66
2021/06/25 09:38:35;;;;;;;;;21.50;17.50;;;;;22.94;41.35;101422.25;5078191;27;46704;-59
2021/06/25 09:41:00;;;;;;;;;18.25;17.25;;;;;22.95;41.46;101421.31;5077859;27;45242;-63
2021/06/25 09:43:35;;;;;;;;;21.75;18.00;;;;;22.97;41.42;101422.91;5078203;27;45359;-59
2021/06/25 09:46:03;;;;;;;;;17.75;15.25;;;;;22.96;41.47;101415.06;5078219;27;45247;-59
2021/06/25 09:48:52;;;;;;;;;17.00;15.00;;;;;23.00;41.23;101413.94;5077795;27;46055;-64
2021/06/25 09:51:18;;;;;;;;;16.50;16.25;;;;;22.99;41.34;101417.53;5077960;27;45468;-66
2021/06/25 09:54:01;;;;;;;;;16.00;13.75;;;;;23.01;41.63;101415.66;5078105;27;45239;-59
2021/06/25 09:56:26;;;;;;;;;15.75;14.00;;;;;23.02;41.44;101409.44;5078277;27;45536;-67
2021/06/25 10:02:18;;;;;;;;;17.75;16.00;;;;;23.04;41.42;101407.56;5077848;28;45275;-59
2021/06/25 10:04:44;;;;;;;;;17.50;17.50;;;;;23.05;41.37;101409.25;5077616;27;45223;-59
2021/06/25 10:07:14;;;;;;;;;17.50;15.50;;;;;23.04;41.44;101407.56;5077867;28;45470;-59
2021/06/25 10:09:45;;;;;;;;;13.75;13.00;;;;;23.07;41.36;101406.53;5077499;27;45544;-58
2021/06/25 10:12:13;;;;;;;;;18.25;15.00;;;;;23.08;41.22;101401.16;5077647;28;45705;-58
2021/06/25 10:14:40;;;;;;;;;11.00;10.50;;;;;23.08;41.48;101403.81;5077720;27;45339;-58
2021/06/25 10:17:08;;;;;;;;;15.00;15.00;;;;;23.10;41.18;101409.84;5077957;27;45410;-59
2021/06/25 10:19:40;;;;;;;;;13.00;13.00;;;;;23.11;41.42;101400.97;5077506;27;46253;-61
2021/06/25 10:22:08;;;;;;;;;18.25;17.00;;;;;23.11;41.52;101395.69;5076493;27;45915;-59
2021/06/25 10:24:34;;;;;;;;;15.75;14.75;;;;;23.14;41.39;101403.44;5077437;27;45347;-59
2021/06/25 10:27:02;;;;;;;;;12.75;11.75;;;;;23.16;41.59;101396.28;5077629;27;45480;-55
2021/06/25 10:29:31;;;;;;;;;14.75;12.25;;;;;23.17;41.33;101381.25;5075990;27;46170;-54
2021/06/25 10:31:56;;;;;;;;;17.50;15.50;;;;;23.16;41.13;101393.63;5077379;27;45485;-51
2021/06/25 10:34:22;;;;;;;;;21.25;15.75;;;;;23.20;41.32;101393.50;5077616;27;45550;-62
2021/06/25 10:36:51;;;;;;;;;17.50;14.25;;;;;23.19;41.23;101390.00;5076273;28;45472;-52
2021/06/25 10:39:17;;;;;;;;;14.00;14.00;;;;;23.14;41.18;101382.28;5075787;28;48026;-66
2021/06/25 10:41:57;;;;;;;;;14.25;12.00;;;;;23.16;40.91;101385.69;5077167;27;45267;-67
2021/06/25 10:44:52;;;;;;;;;15.50;13.00;;;;;23.16;41.27;101375.13;5076347;28;45407;-69
2021/06/25 10:47:17;;;;;;;;;19.25;15.25;;;;;23.15;41.27;101378.72;5075945;28;45594;-69
2021/06/25 10:50:08;;;;;;;;;12.00;12.00;;;;;23.15;41.56;101373.41;5076994;28;46249;-67
2021/06/25 10:52:37;;;;;;;;;15.50;14.25;;;;;23.15;41.35;101377.88;5077204;27;45454;-67
2021/06/25 10:55:08;;;;;;;;;15.75;14.00;;;;;23.14;41.18;101382.28;5077182;27;45311;-66
2021/06/25 10:57:48;;;;;;;;;14.50;12.75;;;;;23.14;41.61;101374.34;5077260;27;45496;-67
2021/06/25 11:00:38;;;;;;;;;16.00;13.50;;;;;23.13;41.47;101374.47;5076936;27;45364;-61
2021/06/25 11:03:05;;;;;;;;;16.50;13.25;;;;;23.11;41.54;101371.88;5076884;27;45356;-61
2021/06/25 11:05:30;;;;;;;;;11.25;11.25;;;;;23.12;41.50;101372.75;5076991;27;45317;-63
2021/06/25 11:08:00;;;;;;;;;12.25;12.25;;;;;23.12;41.50;101370.09;5077404;27;45353;-59
2021/06/25 11:10:35;;;;;;;;;13.75;13.25;;;;;23.12;41.45;101370.09;5075793;27;46574;-49
2021/06/25 11:13:13;;;;;;;;;14.00;11.75;;;;;23.11;41.74;101373.69;5076783;27;45280;-54
2021/06/25 11:15:43;;;;;;;;;15.25;14.00;;;;;23.08;41.52;101377.38;5075630;28;45389;-59
2021/06/25 11:18:20;;;;;;;;;28.50;24.75;;;;;23.08;41.99;101374.72;5076943;27;45587;-57
2021/06/25 11:20:54;;;;;;;;;37.75;32.75;;;;;23.08;41.69;101380.00;5076644;28;45317;-61
2021/06/25 11:23:42;;;;;;;;;63.25;50.00;;;;;23.08;42.07;101374.72;5076479;27;45216;-64
2021/06/25 11:26:13;;;;;;;;;70.50;55.75;;;;;23.08;42.03;101377.38;5076703;28;45296;-58